sensor_id;sensor_type;location;lat;lon;timestamp;P1;durP1;ratioP1;P2;durP2;ratioP2
18899;SDS011;9582;52.018;6.306;2022-07-10T00:01:52;7.97;;;1.83;;
18899;SDS011;9582;52.018;6.306;2022-07-10T00:04:18;5.28;;;1.67;;
18899;SDS011;9582;52.018;6.306;2022-07-10T00:06:46;5.60;;;1.77;;
18899;SDS011;9582;52.018;6.306;2022-07-10T00:09:12;8.10;;;2.00;;
18899;SDS011;9582;52.018;6.306;2022-07-10T00:11:39;5.63;;;1.75;;
18899;SDS011;9582;52.018;6.306;2022-07-10T00:14:06;3.30;;;1.58;;
18899;SDS011;9582;52.018;6.306;2022-07-10T00:16:32;6.00;;;1.40;;
18899;SDS011;9582;52.018;6.306;2022-07-10T00:18:59;5.95;;;1.90;;
18899;SDS011;9582;52.018;6.306;2022-07-10T00:21:25;6.75;;;1.73;;
18899;SDS011;9582;52.018;6.306;2022-07-10T00:23:53;3.47;;;1.38;;
18899;SDS011;9582;52.018;6.306;2022-07-10T00:26:20;5.63;;;1.75;;
18899;SDS011;9582;52.018;6.306;2022-07-10T00:28:46;10.07;;;2.00;;
18899;SDS011;9582;52.018;6.306;2022-07-10T00:31:13;5.65;;;1.50;;
18899;SDS011;9582;52.018;6.306;2022-07-10T00:33:39;7.00;;;1.83;;
18899;SDS011;9582;52.018;6.306;2022-07-10T00:36:06;4.15;;;1.60;;
18899;SDS011;9582;52.018;6.306;2022-07-10T00:38:33;7.47;;;2.10;;
18899;SDS011;9582;52.018;6.306;2022-07-10T00:41:00;5.70;;;1.80;;
18899;SDS011;9582;52.018;6.306;2022-07-10T00:43:27;4.93;;;1.60;;
18899;SDS011;9582;52.018;6.306;2022-07-10T00:45:54;4.15;;;1.60;;
18899;SDS011;9582;52.018;6.306;2022-07-10T00:48:21;10.10;;;1.90;;
18899;SDS011;9582;52.018;6.306;2022-07-10T00:50:47;7.57;;;2.25;;
18899;SDS011;9582;52.018;6.306;2022-07-10T00:53:14;3.78;;;1.92;;
18899;SDS011;9582;52.018;6.306;2022-07-10T00:55:41;5.45;;;1.60;;
18899;SDS011;9582;52.018;6.306;2022-07-10T00:58:10;6.68;;;2.00;;
18899;SDS011;9582;52.018;6.306;2022-07-10T01:00:38;4.40;;;1.77;;
18899;SDS011;9582;52.018;6.306;2022-07-10T01:03:05;3.97;;;1.58;;
18899;SDS011;9582;52.018;6.306;2022-07-10T01:05:31;6.57;;;1.60;;
18899;SDS011;9582;52.018;6.306;2022-07-10T01:07:58;3.88;;;1.80;;
18899;SDS011;9582;52.018;6.306;2022-07-10T01:10:24;5.85;;;1.92;;
18899;SDS011;9582;52.018;6.306;2022-07-10T01:12:51;4.70;;;1.55;;
18899;SDS011;9582;52.018;6.306;2022-07-10T01:15:19;4.10;;;1.58;;
18899;SDS011;9582;52.018;6.306;2022-07-10T01:17:46;4.38;;;1.60;;
18899;SDS011;9582;52.018;6.306;2022-07-10T01:20:14;5.28;;;1.70;;
18899;SDS011;9582;52.018;6.306;2022-07-10T01:22:42;4.82;;;1.73;;
18899;SDS011;9582;52.018;6.306;2022-07-10T01:25:09;6.05;;;1.83;;
18899;SDS011;9582;52.018;6.306;2022-07-10T01:27:37;4.47;;;1.60;;
18899;SDS011;9582;52.018;6.306;2022-07-10T01:30:03;6.20;;;2.13;;
18899;SDS011;9582;52.018;6.306;2022-07-10T01:32:36;5.22;;;1.50;;
18899;SDS011;9582;52.018;6.306;2022-07-10T01:35:03;6.40;;;1.90;;
18899;SDS011;9582;52.018;6.306;2022-07-10T01:37:30;8.07;;;2.25;;
18899;SDS011;9582;52.018;6.306;2022-07-10T01:39:58;6.13;;;2.38;;
18899;SDS011;9582;52.018;6.306;2022-07-10T01:42:24;5.90;;;1.75;;
18899;SDS011;9582;52.018;6.306;2022-07-10T01:44:51;3.60;;;1.60;;
18899;SDS011;9582;52.018;6.306;2022-07-10T01:47:18;5.18;;;1.80;;
18899;SDS011;9582;52.018;6.306;2022-07-10T01:49:45;4.97;;;2.00;;
18899;SDS011;9582;52.018;6.306;2022-07-10T01:52:11;3.95;;;2.00;;
18899;SDS011;9582;52.018;6.306;2022-07-10T01:54:38;7.03;;;2.10;;
18899;SDS011;9582;52.018;6.306;2022-07-10T01:57:06;3.67;;;1.85;;
18899;SDS011;9582;52.018;6.306;2022-07-10T01:59:32;3.83;;;1.77;;
18899;SDS011;9582;52.018;6.306;2022-07-10T02:01:59;8.50;;;2.25;;
18899;SDS011;9582;52.018;6.306;2022-07-10T02:04:25;6.05;;;1.80;;
18899;SDS011;9582;52.018;6.306;2022-07-10T02:07:06;5.80;;;2.03;;
18899;SDS011;9582;52.018;6.306;2022-07-10T02:09:33;8.45;;;2.08;;
18899;SDS011;9582;52.018;6.306;2022-07-10T02:11:59;5.00;;;1.83;;
18899;SDS011;9582;52.018;6.306;2022-07-10T02:14:27;5.97;;;1.70;;
18899;SDS011;9582;52.018;6.306;2022-07-10T02:16:54;6.78;;;1.90;;
18899;SDS011;9582;52.018;6.306;2022-07-10T02:19:20;4.05;;;2.00;;
18899;SDS011;9582;52.018;6.306;2022-07-10T02:21:47;4.88;;;1.83;;
18899;SDS011;9582;52.018;6.306;2022-07-10T02:24:14;3.42;;;1.80;;
18899;SDS011;9582;52.018;6.306;2022-07-10T02:26:40;5.40;;;2.17;;
18899;SDS011;9582;52.018;6.306;2022-07-10T02:29:07;6.57;;;2.35;;
18899;SDS011;9582;52.018;6.306;2022-07-10T02:31:35;6.10;;;2.30;;
18899;SDS011;9582;52.018;6.306;2022-07-10T02:34:05;7.90;;;2.30;;
18899;SDS011;9582;52.018;6.306;2022-07-10T02:36:32;8.38;;;2.40;;
18899;SDS011;9582;52.018;6.306;2022-07-10T02:38:58;4.78;;;2.00;;
18899;SDS011;9582;52.018;6.306;2022-07-10T02:41:25;8.38;;;1.92;;
18899;SDS011;9582;52.018;6.306;2022-07-10T02:43:51;5.37;;;1.97;;
18899;SDS011;9582;52.018;6.306;2022-07-10T02:46:18;7.53;;;2.30;;
18899;SDS011;9582;52.018;6.306;2022-07-10T02:48:46;5.07;;;2.07;;
18899;SDS011;9582;52.018;6.306;2022-07-10T02:51:12;7.10;;;2.70;;
18899;SDS011;9582;52.018;6.306;2022-07-10T02:53:39;6.65;;;2.30;;
18899;SDS011;9582;52.018;6.306;2022-07-10T02:56:05;6.80;;;2.17;;
18899;SDS011;9582;52.018;6.306;2022-07-10T02:58:32;10.65;;;2.47;;
18899;SDS011;9582;52.018;6.306;2022-07-10T03:00:59;7.80;;;2.87;;
18899;SDS011;9582;52.018;6.306;2022-07-10T03:03:26;5.53;;;2.17;;
18899;SDS011;9582;52.018;6.306;2022-07-10T03:05:54;5.93;;;2.00;;
18899;SDS011;9582;52.018;6.306;2022-07-10T03:08:20;3.77;;;2.30;;
18899;SDS011;9582;52.018;6.306;2022-07-10T03:10:47;8.17;;;2.03;;
18899;SDS011;9582;52.018;6.306;2022-07-10T03:13:13;5.93;;;1.97;;
18899;SDS011;9582;52.018;6.306;2022-07-10T03:15:39;4.73;;;2.37;;
18899;SDS011;9582;52.018;6.306;2022-07-10T03:18:06;5.90;;;2.10;;
18899;SDS011;9582;52.018;6.306;2022-07-10T03:20:32;3.90;;;1.70;;
18899;SDS011;9582;52.018;6.306;2022-07-10T03:23:00;4.17;;;2.30;;
18899;SDS011;9582;52.018;6.306;2022-07-10T03:25:27;6.90;;;2.27;;
18899;SDS011;9582;52.018;6.306;2022-07-10T03:27:53;7.13;;;2.07;;
18899;SDS011;9582;52.018;6.306;2022-07-10T03:30:20;5.07;;;2.05;;
18899;SDS011;9582;52.018;6.306;2022-07-10T03:32:46;5.13;;;2.20;;
18899;SDS011;9582;52.018;6.306;2022-07-10T03:35:13;5.33;;;2.50;;
18899;SDS011;9582;52.018;6.306;2022-07-10T03:37:39;6.50;;;1.80;;
18899;SDS011;9582;52.018;6.306;2022-07-10T03:40:08;6.43;;;2.10;;
18899;SDS011;9582;52.018;6.306;2022-07-10T03:42:35;5.67;;;1.97;;
18899;SDS011;9582;52.018;6.306;2022-07-10T03:45:02;4.13;;;1.73;;
18899;SDS011;9582;52.018;6.306;2022-07-10T03:47:28;5.50;;;2.10;;
18899;SDS011;9582;52.018;6.306;2022-07-10T03:49:55;6.23;;;2.17;;
18899;SDS011;9582;52.018;6.306;2022-07-10T03:52:21;4.87;;;2.10;;
18899;SDS011;9582;52.018;6.306;2022-07-10T03:54:48;8.17;;;2.47;;
18899;SDS011;9582;52.018;6.306;2022-07-10T03:57:16;7.00;;;2.23;;
18899;SDS011;9582;52.018;6.306;2022-07-10T04:00:03;4.70;;;1.70;;
18899;SDS011;9582;52.018;6.306;2022-07-10T04:02:37;3.45;;;1.92;;
18899;SDS011;9582;52.018;6.306;2022-07-10T04:05:05;6.20;;;2.17;;
18899;SDS011;9582;52.018;6.306;2022-07-10T04:07:32;6.90;;;2.10;;
18899;SDS011;9582;52.018;6.306;2022-07-10T04:09:59;4.57;;;2.03;;
18899;SDS011;9582;52.018;6.306;2022-07-10T04:12:27;6.43;;;2.33;;
18899;SDS011;9582;52.018;6.306;2022-07-10T04:14:53;6.43;;;2.20;;
18899;SDS011;9582;52.018;6.306;2022-07-10T04:17:21;5.57;;;2.05;;
18899;SDS011;9582;52.018;6.306;2022-07-10T04:19:47;7.70;;;2.25;;
18899;SDS011;9582;52.018;6.306;2022-07-10T04:22:14;7.20;;;2.13;;
18899;SDS011;9582;52.018;6.306;2022-07-10T04:24:40;4.45;;;1.90;;
18899;SDS011;9582;52.018;6.306;2022-07-10T04:27:07;3.50;;;2.03;;
18899;SDS011;9582;52.018;6.306;2022-07-10T04:29:35;6.03;;;2.40;;
18899;SDS011;9582;52.018;6.306;2022-07-10T04:32:01;6.38;;;2.28;;
18899;SDS011;9582;52.018;6.306;2022-07-10T04:34:28;5.38;;;2.50;;
18899;SDS011;9582;52.018;6.306;2022-07-10T04:36:55;6.78;;;2.45;;
18899;SDS011;9582;52.018;6.306;2022-07-10T04:39:21;5.20;;;1.95;;
18899;SDS011;9582;52.018;6.306;2022-07-10T04:41:48;5.78;;;1.92;;
18899;SDS011;9582;52.018;6.306;2022-07-10T04:44:14;7.18;;;1.95;;
18899;SDS011;9582;52.018;6.306;2022-07-10T04:46:42;8.40;;;2.30;;
18899;SDS011;9582;52.018;6.306;2022-07-10T04:49:08;6.88;;;2.50;;
18899;SDS011;9582;52.018;6.306;2022-07-10T04:51:35;5.90;;;2.00;;
18899;SDS011;9582;52.018;6.306;2022-07-10T04:54:02;4.97;;;2.30;;
18899;SDS011;9582;52.018;6.306;2022-07-10T04:56:28;4.65;;;1.80;;
18899;SDS011;9582;52.018;6.306;2022-07-10T04:58:55;6.88;;;2.20;;
18899;SDS011;9582;52.018;6.306;2022-07-10T05:01:21;3.95;;;2.40;;
18899;SDS011;9582;52.018;6.306;2022-07-10T05:03:49;5.63;;;2.20;;
18899;SDS011;9582;52.018;6.306;2022-07-10T05:06:15;6.03;;;2.03;;
18899;SDS011;9582;52.018;6.306;2022-07-10T05:08:42;10.75;;;2.45;;
18899;SDS011;9582;52.018;6.306;2022-07-10T05:11:08;5.63;;;2.22;;
18899;SDS011;9582;52.018;6.306;2022-07-10T05:13:35;6.20;;;2.22;;
18899;SDS011;9582;52.018;6.306;2022-07-10T05:16:02;5.15;;;1.90;;
18899;SDS011;9582;52.018;6.306;2022-07-10T05:18:29;4.53;;;2.13;;
18899;SDS011;9582;52.018;6.306;2022-07-10T05:20:57;4.85;;;2.05;;
18899;SDS011;9582;52.018;6.306;2022-07-10T05:23:23;4.65;;;2.10;;
18899;SDS011;9582;52.018;6.306;2022-07-10T05:25:50;4.78;;;2.15;;
18899;SDS011;9582;52.018;6.306;2022-07-10T05:28:16;3.08;;;1.73;;
18899;SDS011;9582;52.018;6.306;2022-07-10T05:30:42;6.15;;;1.90;;
18899;SDS011;9582;52.018;6.306;2022-07-10T05:33:09;5.32;;;1.92;;
18899;SDS011;9582;52.018;6.306;2022-07-10T05:35:36;5.70;;;1.98;;
18899;SDS011;9582;52.018;6.306;2022-07-10T05:38:03;5.75;;;2.10;;
18899;SDS011;9582;52.018;6.306;2022-07-10T05:40:30;3.53;;;2.00;;
18899;SDS011;9582;52.018;6.306;2022-07-10T05:42:56;7.00;;;2.00;;
18899;SDS011;9582;52.018;6.306;2022-07-10T05:45:23;6.07;;;2.17;;
18899;SDS011;9582;52.018;6.306;2022-07-10T05:47:50;4.40;;;1.98;;
18899;SDS011;9582;52.018;6.306;2022-07-10T05:50:17;10.13;;;2.85;;
18899;SDS011;9582;52.018;6.306;2022-07-10T05:52:43;6.30;;;2.20;;
18899;SDS011;9582;52.018;6.306;2022-07-10T05:55:11;7.65;;;2.00;;
18899;SDS011;9582;52.018;6.306;2022-07-10T05:57:38;3.63;;;1.80;;
18899;SDS011;9582;52.018;6.306;2022-07-10T06:00:05;4.68;;;2.05;;
18899;SDS011;9582;52.018;6.306;2022-07-10T06:02:38;4.38;;;2.00;;
18899;SDS011;9582;52.018;6.306;2022-07-10T06:05:05;6.10;;;2.33;;
18899;SDS011;9582;52.018;6.306;2022-07-10T06:07:32;7.45;;;2.03;;
18899;SDS011;9582;52.018;6.306;2022-07-10T06:10:00;5.72;;;1.58;;
18899;SDS011;9582;52.018;6.306;2022-07-10T06:12:28;4.90;;;2.13;;
18899;SDS011;9582;52.018;6.306;2022-07-10T06:14:55;5.20;;;2.13;;
18899;SDS011;9582;52.018;6.306;2022-07-10T06:17:21;7.05;;;2.10;;
18899;SDS011;9582;52.018;6.306;2022-07-10T06:19:48;4.85;;;2.30;;
18899;SDS011;9582;52.018;6.306;2022-07-10T06:22:15;4.07;;;2.03;;
18899;SDS011;9582;52.018;6.306;2022-07-10T06:24:56;8.02;;;2.30;;
18899;SDS011;9582;52.018;6.306;2022-07-10T06:27:23;5.25;;;1.75;;
18899;SDS011;9582;52.018;6.306;2022-07-10T06:29:51;6.75;;;2.10;;
18899;SDS011;9582;52.018;6.306;2022-07-10T06:32:17;6.47;;;2.13;;
18899;SDS011;9582;52.018;6.306;2022-07-10T06:34:44;6.88;;;2.00;;
18899;SDS011;9582;52.018;6.306;2022-07-10T06:37:10;5.65;;;2.00;;
18899;SDS011;9582;52.018;6.306;2022-07-10T06:39:37;6.47;;;2.10;;
18899;SDS011;9582;52.018;6.306;2022-07-10T06:42:04;6.15;;;2.10;;
18899;SDS011;9582;52.018;6.306;2022-07-10T06:44:38;5.68;;;1.98;;
18899;SDS011;9582;52.018;6.306;2022-07-10T06:47:06;6.72;;;2.08;;
18899;SDS011;9582;52.018;6.306;2022-07-10T06:49:51;8.45;;;2.25;;
18899;SDS011;9582;52.018;6.306;2022-07-10T06:52:19;8.98;;;2.20;;
18899;SDS011;9582;52.018;6.306;2022-07-10T06:54:46;4.95;;;2.15;;
18899;SDS011;9582;52.018;6.306;2022-07-10T06:57:12;6.68;;;2.10;;
18899;SDS011;9582;52.018;6.306;2022-07-10T06:59:39;5.22;;;2.05;;
18899;SDS011;9582;52.018;6.306;2022-07-10T07:02:07;6.70;;;2.15;;
18899;SDS011;9582;52.018;6.306;2022-07-10T07:04:33;7.65;;;2.40;;
18899;SDS011;9582;52.018;6.306;2022-07-10T07:07:00;6.85;;;2.22;;
18899;SDS011;9582;52.018;6.306;2022-07-10T07:09:28;5.00;;;1.90;;
18899;SDS011;9582;52.018;6.306;2022-07-10T07:11:54;6.65;;;2.00;;
18899;SDS011;9582;52.018;6.306;2022-07-10T07:14:21;9.52;;;2.15;;
18899;SDS011;9582;52.018;6.306;2022-07-10T07:16:47;5.10;;;2.08;;
18899;SDS011;9582;52.018;6.306;2022-07-10T07:19:24;7.85;;;2.22;;
18899;SDS011;9582;52.018;6.306;2022-07-10T07:21:57;4.95;;;2.00;;
18899;SDS011;9582;52.018;6.306;2022-07-10T07:24:42;3.72;;;2.13;;
18899;SDS011;9582;52.018;6.306;2022-07-10T07:27:08;10.27;;;2.20;;
18899;SDS011;9582;52.018;6.306;2022-07-10T07:29:35;9.73;;;2.40;;
18899;SDS011;9582;52.018;6.306;2022-07-10T07:32:02;6.50;;;2.50;;
18899;SDS011;9582;52.018;6.306;2022-07-10T07:34:30;8.75;;;2.75;;
18899;SDS011;9582;52.018;6.306;2022-07-10T07:36:57;6.03;;;2.50;;
18899;SDS011;9582;52.018;6.306;2022-07-10T07:39:24;10.13;;;3.05;;
18899;SDS011;9582;52.018;6.306;2022-07-10T07:41:50;7.72;;;2.63;;
18899;SDS011;9582;52.018;6.306;2022-07-10T07:44:17;7.03;;;2.90;;
18899;SDS011;9582;52.018;6.306;2022-07-10T07:46:43;6.03;;;2.65;;
18899;SDS011;9582;52.018;6.306;2022-07-10T07:49:10;8.63;;;2.63;;
18899;SDS011;9582;52.018;6.306;2022-07-10T07:51:38;9.50;;;2.78;;
18899;SDS011;9582;52.018;6.306;2022-07-10T07:54:04;10.50;;;2.75;;
18899;SDS011;9582;52.018;6.306;2022-07-10T07:56:31;8.27;;;2.88;;
18899;SDS011;9582;52.018;6.306;2022-07-10T07:58:57;5.90;;;2.60;;
18899;SDS011;9582;52.018;6.306;2022-07-10T08:01:24;3.78;;;2.17;;
18899;SDS011;9582;52.018;6.306;2022-07-10T08:03:51;5.10;;;2.10;;
18899;SDS011;9582;52.018;6.306;2022-07-10T08:06:17;6.53;;;2.10;;
18899;SDS011;9582;52.018;6.306;2022-07-10T08:08:45;3.92;;;1.92;;
18899;SDS011;9582;52.018;6.306;2022-07-10T08:11:12;6.00;;;2.25;;
18899;SDS011;9582;52.018;6.306;2022-07-10T08:13:39;4.38;;;2.13;;
18899;SDS011;9582;52.018;6.306;2022-07-10T08:16:05;5.50;;;2.00;;
18899;SDS011;9582;52.018;6.306;2022-07-10T08:18:32;3.40;;;1.90;;
18899;SDS011;9582;52.018;6.306;2022-07-10T08:20:58;5.15;;;2.33;;
18899;SDS011;9582;52.018;6.306;2022-07-10T08:23:25;3.53;;;1.90;;
18899;SDS011;9582;52.018;6.306;2022-07-10T08:25:53;4.38;;;2.20;;
18899;SDS011;9582;52.018;6.306;2022-07-10T08:28:19;3.03;;;2.03;;
18899;SDS011;9582;52.018;6.306;2022-07-10T08:30:46;4.63;;;1.75;;
18899;SDS011;9582;52.018;6.306;2022-07-10T08:33:12;4.38;;;2.20;;
18899;SDS011;9582;52.018;6.306;2022-07-10T08:35:39;2.08;;;1.75;;
18899;SDS011;9582;52.018;6.306;2022-07-10T08:38:07;2.63;;;1.92;;
18899;SDS011;9582;52.018;6.306;2022-07-10T08:40:34;3.25;;;1.73;;
18899;SDS011;9582;52.018;6.306;2022-07-10T08:43:03;5.10;;;1.70;;
18899;SDS011;9582;52.018;6.306;2022-07-10T08:45:31;5.07;;;2.17;;
18899;SDS011;9582;52.018;6.306;2022-07-10T08:47:59;2.33;;;2.10;;
18899;SDS011;9582;52.018;6.306;2022-07-10T08:50:28;4.90;;;1.88;;
18899;SDS011;9582;52.018;6.306;2022-07-10T08:52:57;2.85;;;2.05;;
18899;SDS011;9582;52.018;6.306;2022-07-10T08:55:27;3.08;;;1.80;;
18899;SDS011;9582;52.018;6.306;2022-07-10T08:57:54;3.67;;;2.05;;
18899;SDS011;9582;52.018;6.306;2022-07-10T09:00:22;3.25;;;2.10;;
18899;SDS011;9582;52.018;6.306;2022-07-10T09:02:49;5.93;;;2.30;;
18899;SDS011;9582;52.018;6.306;2022-07-10T09:05:16;3.08;;;2.30;;
18899;SDS011;9582;52.018;6.306;2022-07-10T09:07:42;4.05;;;2.53;;
18899;SDS011;9582;52.018;6.306;2022-07-10T09:10:10;7.07;;;2.60;;
18899;SDS011;9582;52.018;6.306;2022-07-10T09:15:23;7.28;;;2.65;;
18899;SDS011;9582;52.018;6.306;2022-07-10T09:17:54;4.10;;;2.38;;
18899;SDS011;9582;52.018;6.306;2022-07-10T09:20:26;4.40;;;2.75;;
18899;SDS011;9582;52.018;6.306;2022-07-10T09:22:55;6.55;;;2.50;;
18899;SDS011;9582;52.018;6.306;2022-07-10T09:25:24;6.18;;;2.63;;
18899;SDS011;9582;52.018;6.306;2022-07-10T09:27:56;3.72;;;2.30;;
18899;SDS011;9582;52.018;6.306;2022-07-10T09:30:33;5.90;;;2.92;;
18899;SDS011;9582;52.018;6.306;2022-07-10T09:33:19;9.50;;;2.97;;
18899;SDS011;9582;52.018;6.306;2022-07-10T09:35:57;6.93;;;2.67;;
18899;SDS011;9582;52.018;6.306;2022-07-10T09:38:47;6.47;;;2.83;;
18899;SDS011;9582;52.018;6.306;2022-07-10T09:41:17;5.88;;;3.30;;
18899;SDS011;9582;52.018;6.306;2022-07-10T09:43:45;7.93;;;2.95;;
18899;SDS011;9582;52.018;6.306;2022-07-10T09:46:14;7.78;;;3.17;;
18899;SDS011;9582;52.018;6.306;2022-07-10T09:48:40;6.72;;;2.95;;
18899;SDS011;9582;52.018;6.306;2022-07-10T09:51:07;6.05;;;2.58;;
18899;SDS011;9582;52.018;6.306;2022-07-10T09:53:36;7.72;;;3.35;;
18899;SDS011;9582;52.018;6.306;2022-07-10T09:56:06;5.47;;;2.70;;
18899;SDS011;9582;52.018;6.306;2022-07-10T09:58:33;4.70;;;3.40;;
18899;SDS011;9582;52.018;6.306;2022-07-10T10:01:01;3.75;;;2.25;;
18899;SDS011;9582;52.018;6.306;2022-07-10T10:03:31;5.85;;;2.65;;
18899;SDS011;9582;52.018;6.306;2022-07-10T10:06:01;6.35;;;2.42;;
18899;SDS011;9582;52.018;6.306;2022-07-10T10:08:31;4.18;;;2.67;;
18899;SDS011;9582;52.018;6.306;2022-07-10T10:11:02;4.72;;;2.70;;
18899;SDS011;9582;52.018;6.306;2022-07-10T10:13:33;4.95;;;2.58;;
18899;SDS011;9582;52.018;6.306;2022-07-10T10:16:00;4.32;;;2.17;;
18899;SDS011;9582;52.018;6.306;2022-07-10T10:18:28;4.38;;;2.13;;
18899;SDS011;9582;52.018;6.306;2022-07-10T10:20:56;4.85;;;2.67;;
18899;SDS011;9582;52.018;6.306;2022-07-10T10:23:23;4.25;;;2.42;;
18899;SDS011;9582;52.018;6.306;2022-07-10T10:25:51;7.68;;;2.20;;
18899;SDS011;9582;52.018;6.306;2022-07-10T10:28:20;5.40;;;2.17;;
18899;SDS011;9582;52.018;6.306;2022-07-10T10:30:48;8.05;;;2.55;;
18899;SDS011;9582;52.018;6.306;2022-07-10T10:39:16;5.85;;;2.55;;
18899;SDS011;9582;52.018;6.306;2022-07-10T10:41:47;4.10;;;2.13;;
18899;SDS011;9582;52.018;6.306;2022-07-10T10:44:19;6.82;;;2.08;;
18899;SDS011;9582;52.018;6.306;2022-07-10T10:46:53;5.90;;;2.22;;
18899;SDS011;9582;52.018;6.306;2022-07-10T10:49:26;5.63;;;2.00;;
18899;SDS011;9582;52.018;6.306;2022-07-10T10:52:14;5.50;;;1.92;;
18899;SDS011;9582;52.018;6.306;2022-07-10T10:55:03;6.80;;;2.92;;
18899;SDS011;9582;52.018;6.306;2022-07-10T10:57:34;4.93;;;1.95;;
18899;SDS011;9582;52.018;6.306;2022-07-10T11:00:05;4.45;;;2.00;;
18899;SDS011;9582;52.018;6.306;2022-07-10T11:02:33;3.83;;;1.95;;
18899;SDS011;9582;52.018;6.306;2022-07-10T11:08:03;6.50;;;2.70;;
18899;SDS011;9582;52.018;6.306;2022-07-10T11:10:31;5.55;;;2.40;;
18899;SDS011;9582;52.018;6.306;2022-07-10T11:12:58;5.90;;;2.10;;
18899;SDS011;9582;52.018;6.306;2022-07-10T11:15:27;6.18;;;2.50;;
18899;SDS011;9582;52.018;6.306;2022-07-10T11:17:55;6.07;;;2.33;;
18899;SDS011;9582;52.018;6.306;2022-07-10T11:20:21;4.20;;;2.33;;
18899;SDS011;9582;52.018;6.306;2022-07-10T11:22:49;5.68;;;2.35;;
18899;SDS011;9582;52.018;6.306;2022-07-10T11:25:28;7.15;;;2.35;;
18899;SDS011;9582;52.018;6.306;2022-07-10T11:28:08;4.53;;;2.40;;
18899;SDS011;9582;52.018;6.306;2022-07-10T11:30:49;4.85;;;2.30;;
18899;SDS011;9582;52.018;6.306;2022-07-10T11:33:16;3.55;;;1.73;;
18899;SDS011;9582;52.018;6.306;2022-07-10T11:35:47;5.22;;;2.00;;
18899;SDS011;9582;52.018;6.306;2022-07-10T11:38:19;3.42;;;1.65;;
18899;SDS011;9582;52.018;6.306;2022-07-10T11:40:47;6.10;;;1.85;;
18899;SDS011;9582;52.018;6.306;2022-07-10T11:43:14;4.25;;;2.20;;
18899;SDS011;9582;52.018;6.306;2022-07-10T11:45:42;3.08;;;1.67;;
18899;SDS011;9582;52.018;6.306;2022-07-10T11:48:16;2.75;;;1.58;;
18899;SDS011;9582;52.018;6.306;2022-07-10T11:50:43;2.65;;;1.85;;
18899;SDS011;9582;52.018;6.306;2022-07-10T11:53:10;4.25;;;1.75;;
18899;SDS011;9582;52.018;6.306;2022-07-10T11:55:37;3.33;;;1.80;;
18899;SDS011;9582;52.018;6.306;2022-07-10T11:58:16;3.70;;;1.83;;
18899;SDS011;9582;52.018;6.306;2022-07-10T12:00:43;2.58;;;1.80;;
18899;SDS011;9582;52.018;6.306;2022-07-10T12:03:17;3.20;;;1.70;;
18899;SDS011;9582;52.018;6.306;2022-07-10T12:05:45;5.95;;;2.10;;
18899;SDS011;9582;52.018;6.306;2022-07-10T12:08:13;2.40;;;1.77;;
18899;SDS011;9582;52.018;6.306;2022-07-10T12:10:40;4.13;;;2.13;;
18899;SDS011;9582;52.018;6.306;2022-07-10T12:13:09;4.57;;;2.00;;
18899;SDS011;9582;52.018;6.306;2022-07-10T12:15:39;4.68;;;1.90;;
18899;SDS011;9582;52.018;6.306;2022-07-10T12:18:06;2.75;;;1.95;;
18899;SDS011;9582;52.018;6.306;2022-07-10T12:20:34;3.00;;;1.92;;
18899;SDS011;9582;52.018;6.306;2022-07-10T12:23:02;3.67;;;1.58;;
18899;SDS011;9582;52.018;6.306;2022-07-10T12:25:29;4.78;;;2.00;;
18899;SDS011;9582;52.018;6.306;2022-07-10T12:27:56;3.75;;;2.08;;
18899;SDS011;9582;52.018;6.306;2022-07-10T12:30:24;4.47;;;1.70;;
18899;SDS011;9582;52.018;6.306;2022-07-10T12:33:06;5.35;;;1.80;;
18899;SDS011;9582;52.018;6.306;2022-07-10T12:35:44;2.45;;;1.75;;
18899;SDS011;9582;52.018;6.306;2022-07-10T12:38:14;5.22;;;2.17;;
18899;SDS011;9582;52.018;6.306;2022-07-10T12:40:41;3.17;;;2.20;;
18899;SDS011;9582;52.018;6.306;2022-07-10T12:43:08;3.03;;;1.85;;
18899;SDS011;9582;52.018;6.306;2022-07-10T12:45:36;3.13;;;1.90;;
18899;SDS011;9582;52.018;6.306;2022-07-10T12:48:03;3.78;;;1.50;;
18899;SDS011;9582;52.018;6.306;2022-07-10T12:50:33;2.22;;;1.70;;
18899;SDS011;9582;52.018;6.306;2022-07-10T12:53:09;4.25;;;1.85;;
18899;SDS011;9582;52.018;6.306;2022-07-10T12:55:38;3.13;;;1.67;;
18899;SDS011;9582;52.018;6.306;2022-07-10T12:58:07;3.05;;;1.70;;
18899;SDS011;9582;52.018;6.306;2022-07-10T13:00:42;2.38;;;1.67;;
18899;SDS011;9582;52.018;6.306;2022-07-10T13:03:16;4.15;;;2.03;;
18899;SDS011;9582;52.018;6.306;2022-07-10T13:05:48;7.15;;;2.20;;
18899;SDS011;9582;52.018;6.306;2022-07-10T13:08:15;2.97;;;1.42;;
18899;SDS011;9582;52.018;6.306;2022-07-10T13:10:45;6.10;;;2.08;;
18899;SDS011;9582;52.018;6.306;2022-07-10T13:13:12;3.10;;;2.00;;
18899;SDS011;9582;52.018;6.306;2022-07-10T13:15:38;4.35;;;2.10;;
18899;SDS011;9582;52.018;6.306;2022-07-10T13:18:12;2.38;;;2.17;;
18899;SDS011;9582;52.018;6.306;2022-07-10T13:20:39;3.25;;;1.50;;
18899;SDS011;9582;52.018;6.306;2022-07-10T13:23:06;2.42;;;1.45;;
18899;SDS011;9582;52.018;6.306;2022-07-10T13:25:33;2.70;;;1.60;;
18899;SDS011;9582;52.018;6.306;2022-07-10T13:28:00;3.47;;;1.67;;
18899;SDS011;9582;52.018;6.306;2022-07-10T13:30:26;3.60;;;1.88;;
18899;SDS011;9582;52.018;6.306;2022-07-10T13:32:53;3.88;;;1.65;;
18899;SDS011;9582;52.018;6.306;2022-07-10T13:35:19;3.17;;;1.55;;
18899;SDS011;9582;52.018;6.306;2022-07-10T13:37:46;5.40;;;1.90;;
18899;SDS011;9582;52.018;6.306;2022-07-10T13:40:14;2.85;;;1.65;;
18899;SDS011;9582;52.018;6.306;2022-07-10T13:42:40;7.00;;;1.90;;
18899;SDS011;9582;52.018;6.306;2022-07-10T13:45:07;4.20;;;1.88;;
18899;SDS011;9582;52.018;6.306;2022-07-10T13:47:34;5.78;;;1.60;;
18899;SDS011;9582;52.018;6.306;2022-07-10T13:50:01;5.70;;;1.70;;
18899;SDS011;9582;52.018;6.306;2022-07-10T13:52:27;2.40;;;1.55;;
18899;SDS011;9582;52.018;6.306;2022-07-10T13:54:53;3.22;;;1.45;;
18899;SDS011;9582;52.018;6.306;2022-07-10T13:57:21;2.80;;;1.42;;
18899;SDS011;9582;52.018;6.306;2022-07-10T13:59:49;3.30;;;1.42;;
18899;SDS011;9582;52.018;6.306;2022-07-10T14:02:15;2.47;;;1.20;;
18899;SDS011;9582;52.018;6.306;2022-07-10T14:04:42;2.63;;;1.40;;
18899;SDS011;9582;52.018;6.306;2022-07-10T14:07:08;2.75;;;1.20;;
18899;SDS011;9582;52.018;6.306;2022-07-10T14:09:35;1.50;;;1.23;;
18899;SDS011;9582;52.018;6.306;2022-07-10T14:12:01;5.20;;;1.50;;
18899;SDS011;9582;52.018;6.306;2022-07-10T14:14:29;2.72;;;1.60;;
18899;SDS011;9582;52.018;6.306;2022-07-10T14:16:56;3.80;;;1.80;;
18899;SDS011;9582;52.018;6.306;2022-07-10T14:19:22;2.78;;;1.20;;
18899;SDS011;9582;52.018;6.306;2022-07-10T14:21:49;2.83;;;1.40;;
18899;SDS011;9582;52.018;6.306;2022-07-10T14:24:15;2.75;;;1.40;;
18899;SDS011;9582;52.018;6.306;2022-07-10T14:26:42;4.47;;;1.40;;
18899;SDS011;9582;52.018;6.306;2022-07-10T14:29:08;3.38;;;1.20;;
18899;SDS011;9582;52.018;6.306;2022-07-10T14:31:36;2.03;;;1.48;;
18899;SDS011;9582;52.018;6.306;2022-07-10T14:34:02;3.50;;;1.35;;
18899;SDS011;9582;52.018;6.306;2022-07-10T14:36:29;4.65;;;1.60;;
18899;SDS011;9582;52.018;6.306;2022-07-10T14:38:56;2.17;;;1.42;;
18899;SDS011;9582;52.018;6.306;2022-07-10T14:41:23;3.78;;;1.50;;
18899;SDS011;9582;52.018;6.306;2022-07-10T14:43:50;3.20;;;1.33;;
18899;SDS011;9582;52.018;6.306;2022-07-10T14:46:17;3.92;;;1.50;;
18899;SDS011;9582;52.018;6.306;2022-07-10T14:48:45;1.92;;;1.35;;
18899;SDS011;9582;52.018;6.306;2022-07-10T14:51:11;3.33;;;1.30;;
18899;SDS011;9582;52.018;6.306;2022-07-10T14:53:38;2.20;;;1.10;;
18899;SDS011;9582;52.018;6.306;2022-07-10T14:56:06;4.68;;;1.45;;
18899;SDS011;9582;52.018;6.306;2022-07-10T14:58:33;3.08;;;1.38;;
18899;SDS011;9582;52.018;6.306;2022-07-10T15:01:00;2.50;;;1.20;;
18899;SDS011;9582;52.018;6.306;2022-07-10T15:03:28;2.80;;;1.42;;
18899;SDS011;9582;52.018;6.306;2022-07-10T15:05:56;4.50;;;1.58;;
18899;SDS011;9582;52.018;6.306;2022-07-10T15:08:23;5.30;;;1.40;;
18899;SDS011;9582;52.018;6.306;2022-07-10T15:10:50;2.45;;;1.10;;
18899;SDS011;9582;52.018;6.306;2022-07-10T15:13:17;1.65;;;1.02;;
18899;SDS011;9582;52.018;6.306;2022-07-10T15:15:43;3.47;;;1.40;;
18899;SDS011;9582;52.018;6.306;2022-07-10T15:18:12;1.80;;;1.20;;